sensor_id;sensor_type;location;lat;lon;timestamp;temperature;humidity
2459;DHT22;1241;50.920;6.936;2023-04-29T00:00:42;14.00;99.90
2459;DHT22;1241;50.920;6.936;2023-04-29T00:03:08;14.00;99.90
2459;DHT22;1241;50.920;6.936;2023-04-29T00:05:33;14.00;99.90
2459;DHT22;1241;50.920;6.936;2023-04-29T00:08:00;14.00;99.90
2459;DHT22;1241;50.920;6.936;2023-04-29T00:10:25;14.00;99.90
2459;DHT22;1241;50.920;6.936;2023-04-29T00:12:51;13.90;99.90
2459;DHT22;1241;50.920;6.936;2023-04-29T00:15:17;14.00;99.90
2459;DHT22;1241;50.920;6.936;2023-04-29T00:17:43;14.00;99.90
2459;DHT22;1241;50.920;6.936;2023-04-29T00:20:09;14.10;99.90
2459;DHT22;1241;50.920;6.936;2023-04-29T00:22:36;14.10;99.90
2459;DHT22;1241;50.920;6.936;2023-04-29T00:25:02;14.00;99.90
2459;DHT22;1241;50.920;6.936;2023-04-29T00:27:28;13.90;99.90
2459;DHT22;1241;50.920;6.936;2023-04-29T00:29:54;13.80;99.90
2459;DHT22;1241;50.920;6.936;2023-04-29T00:32:21;13.70;99.90
2459;DHT22;1241;50.920;6.936;2023-04-29T00:34:47;13.70;99.90
2459;DHT22;1241;50.920;6.936;2023-04-29T00:37:13;13.60;99.90
2459;DHT22;1241;50.920;6.936;2023-04-29T00:39:38;13.30;99.90
2459;DHT22;1241;50.920;6.936;2023-04-29T00:42:04;13.70;99.90
2459;DHT22;1241;50.920;6.936;2023-04-29T00:44:30;13.70;99.90
2459;DHT22;1241;50.920;6.936;2023-04-29T00:46:55;13.70;99.90
2459;DHT22;1241;50.920;6.936;2023-04-29T00:49:21;13.70;99.90
2459;DHT22;1241;50.920;6.936;2023-04-29T00:51:47;13.60;99.90
2459;DHT22;1241;50.920;6.936;2023-04-29T00:54:14;13.50;99.90
2459;DHT22;1241;50.920;6.936;2023-04-29T00:56:41;13.50;99.90
2459;DHT22;1241;50.920;6.936;2023-04-29T00:59:10;13.40;99.90
2459;DHT22;1241;50.920;6.936;2023-04-29T01:01:37;13.60;99.90
2459;DHT22;1241;50.920;6.936;2023-04-29T01:04:04;13.60;99.90
2459;DHT22;1241;50.920;6.936;2023-04-29T01:06:45;13.50;99.90
2459;DHT22;1241;50.920;6.936;2023-04-29T01:14:51;13.50;99.90
2459;DHT22;1241;50.920;6.936;2023-04-29T01:17:20;13.40;99.90
2459;DHT22;1241;50.920;6.936;2023-04-29T01:19:54;13.40;99.90
2459;DHT22;1241;50.920;6.936;2023-04-29T01:22:21;13.30;99.90
2459;DHT22;1241;50.920;6.936;2023-04-29T01:24:48;13.20;99.90
2459;DHT22;1241;50.920;6.936;2023-04-29T01:37:55;13.20;99.90
2459;DHT22;1241;50.920;6.936;2023-04-29T01:40:32;13.20;99.90
2459;DHT22;1241;50.920;6.936;2023-04-29T01:43:06;13.20;99.90
2459;DHT22;1241;50.920;6.936;2023-04-29T01:45:38;13.10;99.90
2459;DHT22;1241;50.920;6.936;2023-04-29T01:48:08;13.10;99.90
2459;DHT22;1241;50.920;6.936;2023-04-29T01:50:34;13.10;99.90
2459;DHT22;1241;50.920;6.936;2023-04-29T01:53:10;13.00;99.90
2459;DHT22;1241;50.920;6.936;2023-04-29T01:55:36;13.00;99.90
2459;DHT22;1241;50.920;6.936;2023-04-29T01:58:17;13.10;99.90
2459;DHT22;1241;50.920;6.936;2023-04-29T02:00:48;13.10;99.90
2459;DHT22;1241;50.920;6.936;2023-04-29T02:03:15;13.10;99.90
2459;DHT22;1241;50.920;6.936;2023-04-29T02:05:45;13.10;99.90
2459;DHT22;1241;50.920;6.936;2023-04-29T02:08:11;13.10;99.90
2459;DHT22;1241;50.920;6.936;2023-04-29T02:10:40;13.20;99.90
2459;DHT22;1241;50.920;6.936;2023-04-29T02:13:15;13.20;99.90
2459;DHT22;1241;50.920;6.936;2023-04-29T02:15:41;13.20;99.90
2459;DHT22;1241;50.920;6.936;2023-04-29T02:18:07;13.10;99.90
2459;DHT22;1241;50.920;6.936;2023-04-29T02:20:33;13.10;99.90
2459;DHT22;1241;50.920;6.936;2023-04-29T02:22:58;13.00;99.90
2459;DHT22;1241;50.920;6.936;2023-04-29T02:25:24;12.90;99.90
2459;DHT22;1241;50.920;6.936;2023-04-29T02:27:50;12.90;99.90
2459;DHT22;1241;50.920;6.936;2023-04-29T02:30:16;12.80;99.90
2459;DHT22;1241;50.920;6.936;2023-04-29T02:32:41;12.70;99.90
2459;DHT22;1241;50.920;6.936;2023-04-29T02:35:07;12.80;99.90
2459;DHT22;1241;50.920;6.936;2023-04-29T02:37:33;12.70;99.90
2459;DHT22;1241;50.920;6.936;2023-04-29T02:40:00;12.80;99.90
2459;DHT22;1241;50.920;6.936;2023-04-29T02:42:26;12.90;99.90
2459;DHT22;1241;50.920;6.936;2023-04-29T02:44:51;12.80;99.90
2459;DHT22;1241;50.920;6.936;2023-04-29T02:47:17;12.80;99.90
2459;DHT22;1241;50.920;6.936;2023-04-29T02:49:43;12.80;99.90
2459;DHT22;1241;50.920;6.936;2023-04-29T02:52:10;12.80;99.90
2459;DHT22;1241;50.920;6.936;2023-04-29T02:54:37;12.80;99.90
2459;DHT22;1241;50.920;6.936;2023-04-29T02:57:03;12.80;99.90
2459;DHT22;1241;50.920;6.936;2023-04-29T02:59:29;12.90;99.90
2459;DHT22;1241;50.920;6.936;2023-04-29T03:01:54;12.90;99.90
2459;DHT22;1241;50.920;6.936;2023-04-29T03:04:20;12.90;99.90
2459;DHT22;1241;50.920;6.936;2023-04-29T03:06:47;13.00;99.90
2459;DHT22;1241;50.920;6.936;2023-04-29T03:09:13;13.00;99.90
2459;DHT22;1241;50.920;6.936;2023-04-29T03:11:39;13.10;99.90
2459;DHT22;1241;50.920;6.936;2023-04-29T03:14:05;13.00;99.90
2459;DHT22;1241;50.920;6.936;2023-04-29T03:16:30;13.00;99.90
2459;DHT22;1241;50.920;6.936;2023-04-29T03:18:56;13.00;99.90
2459;DHT22;1241;50.920;6.936;2023-04-29T03:21:22;13.10;99.90
2459;DHT22;1241;50.920;6.936;2023-04-29T03:23:51;12.90;99.90
2459;DHT22;1241;50.920;6.936;2023-04-29T03:26:23;13.00;99.90
2459;DHT22;1241;50.920;6.936;2023-04-29T03:28:50;13.00;99.90
2459;DHT22;1241;50.920;6.936;2023-04-29T03:31:16;13.00;99.90
2459;DHT22;1241;50.920;6.936;2023-04-29T03:33:42;12.90;99.90
2459;DHT22;1241;50.920;6.936;2023-04-29T03:36:08;12.90;99.90
2459;DHT22;1241;50.920;6.936;2023-04-29T03:38:41;12.80;99.90
2459;DHT22;1241;50.920;6.936;2023-04-29T03:41:07;12.80;99.90
2459;DHT22;1241;50.920;6.936;2023-04-29T03:43:33;12.70;99.90
2459;DHT22;1241;50.920;6.936;2023-04-29T03:46:00;12.60;99.90
2459;DHT22;1241;50.920;6.936;2023-04-29T03:48:26;12.50;99.90
2459;DHT22;1241;50.920;6.936;2023-04-29T03:50:51;12.40;99.90
2459;DHT22;1241;50.920;6.936;2023-04-29T03:53:17;12.30;99.90
2459;DHT22;1241;50.920;6.936;2023-04-29T03:55:43;12.10;99.90
2459;DHT22;1241;50.920;6.936;2023-04-29T03:58:10;12.00;99.90
2459;DHT22;1241;50.920;6.936;2023-04-29T04:00:36;11.90;99.90
2459;DHT22;1241;50.920;6.936;2023-04-29T04:03:06;12.00;99.90
2459;DHT22;1241;50.920;6.936;2023-04-29T04:05:34;12.00;99.90
2459;DHT22;1241;50.920;6.936;2023-04-29T04:08:06;11.90;99.90
2459;DHT22;1241;50.920;6.936;2023-04-29T04:10:54;11.90;99.90
2459;DHT22;1241;50.920;6.936;2023-04-29T04:13:31;11.80;99.90
2459;DHT22;1241;50.920;6.936;2023-04-29T04:15:57;11.80;99.90
2459;DHT22;1241;50.920;6.936;2023-04-29T04:18:23;11.60;99.90
2459;DHT22;1241;50.920;6.936;2023-04-29T04:20:49;11.50;99.90
2459;DHT22;1241;50.920;6.936;2023-04-29T04:23:15;11.60;99.90
2459;DHT22;1241;50.920;6.936;2023-04-29T04:25:49;11.60;99.90
2459;DHT22;1241;50.920;6.936;2023-04-29T04:28:37;11.60;99.90
2459;DHT22;1241;50.920;6.936;2023-04-29T04:31:08;11.60;99.90
2459;DHT22;1241;50.920;6.936;2023-04-29T04:33:34;11.70;99.90
2459;DHT22;1241;50.920;6.936;2023-04-29T04:36:00;11.80;99.90
2459;DHT22;1241;50.920;6.936;2023-04-29T04:38:26;11.90;99.90
2459;DHT22;1241;50.920;6.936;2023-04-29T04:40:53;11.90;99.90
2459;DHT22;1241;50.920;6.936;2023-04-29T04:43:34;12.00;99.90
2459;DHT22;1241;50.920;6.936;2023-04-29T04:46:09;11.90;99.90
2459;DHT22;1241;50.920;6.936;2023-04-29T04:48:39;11.80;99.90
2459;DHT22;1241;50.920;6.936;2023-04-29T04:51:09;11.90;99.90
2459;DHT22;1241;50.920;6.936;2023-04-29T04:53:35;12.00;99.90
2459;DHT22;1241;50.920;6.936;2023-04-29T04:56:06;11.90;99.90
2459;DHT22;1241;50.920;6.936;2023-04-29T04:58:32;11.90;99.90
2459;DHT22;1241;50.920;6.936;2023-04-29T05:00:59;12.00;99.90
2459;DHT22;1241;50.920;6.936;2023-04-29T05:03:24;12.00;99.90
2459;DHT22;1241;50.920;6.936;2023-04-29T05:05:58;11.90;99.90
2459;DHT22;1241;50.920;6.936;2023-04-29T05:08:25;12.00;99.90
2459;DHT22;1241;50.920;6.936;2023-04-29T05:10:52;12.00;99.90
2459;DHT22;1241;50.920;6.936;2023-04-29T05:13:19;12.00;99.90
2459;DHT22;1241;50.920;6.936;2023-04-29T05:15:45;12.00;99.90
2459;DHT22;1241;50.920;6.936;2023-04-29T05:18:12;12.00;99.90
2459;DHT22;1241;50.920;6.936;2023-04-29T05:20:41;11.80;99.90
2459;DHT22;1241;50.920;6.936;2023-04-29T05:23:07;11.80;99.90
2459;DHT22;1241;50.920;6.936;2023-04-29T05:25:37;11.70;99.90
2459;DHT22;1241;50.920;6.936;2023-04-29T05:28:04;11.80;99.90
2459;DHT22;1241;50.920;6.936;2023-04-29T05:30:32;11.80;99.90
2459;DHT22;1241;50.920;6.936;2023-04-29T05:32:58;11.80;99.90
2459;DHT22;1241;50.920;6.936;2023-04-29T05:35:24;11.80;99.90
2459;DHT22;1241;50.920;6.936;2023-04-29T05:37:50;11.90;99.90
2459;DHT22;1241;50.920;6.936;2023-04-29T05:40:24;12.00;99.90
2459;DHT22;1241;50.920;6.936;2023-04-29T05:42:53;12.10;99.90
2459;DHT22;1241;50.920;6.936;2023-04-29T05:45:18;12.20;99.90
2459;DHT22;1241;50.920;6.936;2023-04-29T05:47:44;12.30;99.90
2459;DHT22;1241;50.920;6.936;2023-04-29T05:50:10;12.20;99.90
2459;DHT22;1241;50.920;6.936;2023-04-29T05:52:36;12.20;99.90
2459;DHT22;1241;50.920;6.936;2023-04-29T05:55:02;12.20;99.90
2459;DHT22;1241;50.920;6.936;2023-04-29T05:57:28;12.20;99.90
2459;DHT22;1241;50.920;6.936;2023-04-29T05:59:54;12.20;99.90
2459;DHT22;1241;50.920;6.936;2023-04-29T06:02:20;12.10;99.90
2459;DHT22;1241;50.920;6.936;2023-04-29T06:04:46;12.20;99.90
2459;DHT22;1241;50.920;6.936;2023-04-29T06:07:13;12.10;99.90
2459;DHT22;1241;50.920;6.936;2023-04-29T06:09:59;12.10;99.90
2459;DHT22;1241;50.920;6.936;2023-04-29T06:12:26;12.20;99.90
2459;DHT22;1241;50.920;6.936;2023-04-29T06:14:52;12.20;99.90
2459;DHT22;1241;50.920;6.936;2023-04-29T06:17:17;12.20;99.90
2459;DHT22;1241;50.920;6.936;2023-04-29T06:19:43;12.10;99.90
2459;DHT22;1241;50.920;6.936;2023-04-29T06:22:09;12.20;99.90
2459;DHT22;1241;50.920;6.936;2023-04-29T06:24:36;12.10;99.90
2459;DHT22;1241;50.920;6.936;2023-04-29T06:27:03;12.10;99.90
2459;DHT22;1241;50.920;6.936;2023-04-29T06:29:29;12.20;99.90
2459;DHT22;1241;50.920;6.936;2023-04-29T06:31:55;12.30;99.90
2459;DHT22;1241;50.920;6.936;2023-04-29T06:34:21;12.20;99.90
2459;DHT22;1241;50.920;6.936;2023-04-29T06:37:09;12.20;99.90
2459;DHT22;1241;50.920;6.936;2023-04-29T06:39:58;12.20;99.90
2459;DHT22;1241;50.920;6.936;2023-04-29T06:43:02;12.30;99.90
2459;DHT22;1241;50.920;6.936;2023-04-29T06:45:47;12.50;99.90
2459;DHT22;1241;50.920;6.936;2023-04-29T06:48:21;12.60;99.90
2459;DHT22;1241;50.920;6.936;2023-04-29T06:50:51;12.60;99.90
2459;DHT22;1241;50.920;6.936;2023-04-29T06:53:18;12.60;99.90
2459;DHT22;1241;50.920;6.936;2023-04-29T06:55:44;12.60;99.90
2459;DHT22;1241;50.920;6.936;2023-04-29T06:58:12;12.70;99.90
2459;DHT22;1241;50.920;6.936;2023-04-29T07:00:39;13.00;99.90
2459;DHT22;1241;50.920;6.936;2023-04-29T07:03:05;12.90;99.90
2459;DHT22;1241;50.920;6.936;2023-04-29T07:05:31;12.90;99.90
2459;DHT22;1241;50.920;6.936;2023-04-29T07:07:57;12.90;99.90
2459;DHT22;1241;50.920;6.936;2023-04-29T07:10:24;12.90;99.90
2459;DHT22;1241;50.920;6.936;2023-04-29T07:12:53;13.00;99.90
2459;DHT22;1241;50.920;6.936;2023-04-29T07:15:20;13.10;99.90
2459;DHT22;1241;50.920;6.936;2023-04-29T07:17:46;13.10;99.90
2459;DHT22;1241;50.920;6.936;2023-04-29T07:20:12;13.20;99.90
2459;DHT22;1241;50.920;6.936;2023-04-29T07:22:39;13.40;99.90
2459;DHT22;1241;50.920;6.936;2023-04-29T07:25:05;13.50;99.90
2459;DHT22;1241;50.920;6.936;2023-04-29T07:27:34;13.60;99.90
2459;DHT22;1241;50.920;6.936;2023-04-29T07:30:00;13.80;99.90
2459;DHT22;1241;50.920;6.936;2023-04-29T07:32:26;14.00;99.90
2459;DHT22;1241;50.920;6.936;2023-04-29T07:34:53;14.20;99.90
2459;DHT22;1241;50.920;6.936;2023-04-29T07:37:19;14.30;99.90
2459;DHT22;1241;50.920;6.936;2023-04-29T07:39:46;14.50;99.90
2459;DHT22;1241;50.920;6.936;2023-04-29T07:42:12;14.30;99.90
2459;DHT22;1241;50.920;6.936;2023-04-29T07:44:38;14.10;99.90
2459;DHT22;1241;50.920;6.936;2023-04-29T07:47:04;13.90;99.90
2459;DHT22;1241;50.920;6.936;2023-04-29T07:49:30;13.80;99.90
2459;DHT22;1241;50.920;6.936;2023-04-29T07:51:56;13.80;99.90
2459;DHT22;1241;50.920;6.936;2023-04-29T07:54:21;13.80;99.90
2459;DHT22;1241;50.920;6.936;2023-04-29T07:56:48;13.80;99.90
2459;DHT22;1241;50.920;6.936;2023-04-29T07:59:14;13.70;99.90
2459;DHT22;1241;50.920;6.936;2023-04-29T08:01:40;13.60;99.90
2459;DHT22;1241;50.920;6.936;2023-04-29T08:04:06;13.50;99.90
2459;DHT22;1241;50.920;6.936;2023-04-29T08:06:39;13.40;99.90
2459;DHT22;1241;50.920;6.936;2023-04-29T08:09:08;13.40;99.90
2459;DHT22;1241;50.920;6.936;2023-04-29T08:11:35;13.50;99.90
2459;DHT22;1241;50.920;6.936;2023-04-29T08:14:02;13.50;99.90
2459;DHT22;1241;50.920;6.936;2023-04-29T08:16:28;13.30;99.90
2459;DHT22;1241;50.920;6.936;2023-04-29T08:18:54;13.30;99.90
2459;DHT22;1241;50.920;6.936;2023-04-29T08:21:20;13.20;99.90
2459;DHT22;1241;50.920;6.936;2023-04-29T08:23:46;13.20;99.90
2459;DHT22;1241;50.920;6.936;2023-04-29T08:26:12;13.20;99.90
2459;DHT22;1241;50.920;6.936;2023-04-29T08:28:38;13.10;99.90
2459;DHT22;1241;50.920;6.936;2023-04-29T08:31:04;13.20;99.90
2459;DHT22;1241;50.920;6.936;2023-04-29T08:33:35;13.20;99.90
2459;DHT22;1241;50.920;6.936;2023-04-29T08:36:02;13.30;99.90
2459;DHT22;1241;50.920;6.936;2023-04-29T08:38:29;13.40;99.90
2459;DHT22;1241;50.920;6.936;2023-04-29T08:40:55;13.50;99.90
2459;DHT22;1241;50.920;6.936;2023-04-29T08:43:21;13.60;99.90
2459;DHT22;1241;50.920;6.936;2023-04-29T08:45:48;13.80;99.90
2459;DHT22;1241;50.920;6.936;2023-04-29T08:48:17;14.10;99.90
2459;DHT22;1241;50.920;6.936;2023-04-29T08:50:44;14.50;99.90
2459;DHT22;1241;50.920;6.936;2023-04-29T08:53:11;14.70;99.90
2459;DHT22;1241;50.920;6.936;2023-04-29T08:55:44;14.90;99.90
2459;DHT22;1241;50.920;6.936;2023-04-29T08:58:12;15.00;99.90
2459;DHT22;1241;50.920;6.936;2023-04-29T09:00:43;15.10;99.90
2459;DHT22;1241;50.920;6.936;2023-04-29T09:03:13;15.20;99.90
2459;DHT22;1241;50.920;6.936;2023-04-29T09:05:42;15.30;99.90
2459;DHT22;1241;50.920;6.936;2023-04-29T09:08:08;15.40;99.90
2459;DHT22;1241;50.920;6.936;2023-04-29T09:10:36;15.60;99.90
2459;DHT22;1241;50.920;6.936;2023-04-29T09:13:02;15.70;99.90
2459;DHT22;1241;50.920;6.936;2023-04-29T09:15:28;15.80;99.90
2459;DHT22;1241;50.920;6.936;2023-04-29T09:17:53;15.90;99.90
2459;DHT22;1241;50.920;6.936;2023-04-29T09:22:50;16.10;99.90
2459;DHT22;1241;50.920;6.936;2023-04-29T09:25:16;16.30;99.90
2459;DHT22;1241;50.920;6.936;2023-04-29T09:27:42;16.10;99.90
2459;DHT22;1241;50.920;6.936;2023-04-29T09:30:09;16.20;99.90
2459;DHT22;1241;50.920;6.936;2023-04-29T09:32:35;16.20;99.90
2459;DHT22;1241;50.920;6.936;2023-04-29T09:37:45;16.00;99.90
2459;DHT22;1241;50.920;6.936;2023-04-29T09:40:31;15.80;99.90
2459;DHT22;1241;50.920;6.936;2023-04-29T09:43:00;15.90;99.90
2459;DHT22;1241;50.920;6.936;2023-04-29T09:48:05;15.90;99.90
2459;DHT22;1241;50.920;6.936;2023-04-29T09:50:32;15.70;99.90
2459;DHT22;1241;50.920;6.936;2023-04-29T09:52:58;15.50;99.90
2459;DHT22;1241;50.920;6.936;2023-04-29T09:55:25;15.20;99.90
2459;DHT22;1241;50.920;6.936;2023-04-29T09:57:52;14.90;99.90
2459;DHT22;1241;50.920;6.936;2023-04-29T10:00:18;14.80;99.90
2459;DHT22;1241;50.920;6.936;2023-04-29T10:02:47;14.90;99.90
2459;DHT22;1241;50.920;6.936;2023-04-29T10:05:15;15.00;99.90
2459;DHT22;1241;50.920;6.936;2023-04-29T10:07:41;15.00;99.90
2459;DHT22;1241;50.920;6.936;2023-04-29T10:10:08;14.90;99.90
2459;DHT22;1241;50.920;6.936;2023-04-29T10:12:36;14.80;99.90
2459;DHT22;1241;50.920;6.936;2023-04-29T10:18:19;14.80;99.90
2459;DHT22;1241;50.920;6.936;2023-04-29T10:20:47;14.70;99.90
2459;DHT22;1241;50.920;6.936;2023-04-29T10:23:14;14.50;99.90
2459;DHT22;1241;50.920;6.936;2023-04-29T10:25:43;14.40;99.90
2459;DHT22;1241;50.920;6.936;2023-04-29T10:28:13;14.40;99.90
2459;DHT22;1241;50.920;6.936;2023-04-29T10:30:43;14.40;99.90
2459;DHT22;1241;50.920;6.936;2023-04-29T10:33:15;14.30;99.90
2459;DHT22;1241;50.920;6.936;2023-04-29T10:35:42;14.20;99.90
2459;DHT22;1241;50.920;6.936;2023-04-29T10:38:28;14.20;99.90
2459;DHT22;1241;50.920;6.936;2023-04-29T10:40:57;14.30;99.90
2459;DHT22;1241;50.920;6.936;2023-04-29T10:43:24;14.30;99.90
2459;DHT22;1241;50.920;6.936;2023-04-29T10:46:22;14.30;99.90
2459;DHT22;1241;50.920;6.936;2023-04-29T10:48:50;14.30;99.90
2459;DHT22;1241;50.920;6.936;2023-04-29T10:51:33;14.20;99.90
2459;DHT22;1241;50.920;6.936;2023-04-29T10:59:09;14.30;99.90
2459;DHT22;1241;50.920;6.936;2023-04-29T11:04:05;14.10;99.90
2459;DHT22;1241;50.920;6.936;2023-04-29T11:09:08;14.00;99.90
2459;DHT22;1241;50.920;6.936;2023-04-29T11:17:00;14.10;99.90
2459;DHT22;1241;50.920;6.936;2023-04-29T11:19:34;14.10;99.90
2459;DHT22;1241;50.920;6.936;2023-04-29T11:24:54;14.00;99.90
2459;DHT22;1241;50.920;6.936;2023-04-29T11:27:23;14.00;99.90
2459;DHT22;1241;50.920;6.936;2023-04-29T11:29:53;13.80;99.90
2459;DHT22;1241;50.920;6.936;2023-04-29T11:32:31;13.70;99.90
2459;DHT22;1241;50.920;6.936;2023-04-29T11:35:13;13.80;99.90
2459;DHT22;1241;50.920;6.936;2023-04-29T11:37:41;13.60;99.90
2459;DHT22;1241;50.920;6.936;2023-04-29T11:40:07;13.70;99.90
2459;DHT22;1241;50.920;6.936;2023-04-29T11:42:47;13.60;99.90
2459;DHT22;1241;50.920;6.936;2023-04-29T11:45:13;13.70;99.90
2459;DHT22;1241;50.920;6.936;2023-04-29T11:47:45;13.70;99.90
2459;DHT22;1241;50.920;6.936;2023-04-29T11:50:11;13.90;99.90
2459;DHT22;1241;50.920;6.936;2023-04-29T11:52:38;14.00;99.90
2459;DHT22;1241;50.920;6.936;2023-04-29T11:55:08;13.90;99.90
2459;DHT22;1241;50.920;6.936;2023-04-29T11:57:35;13.90;99.90
2459;DHT22;1241;50.920;6.936;2023-04-29T12:00:01;14.00;99.90
2459;DHT22;1241;50.920;6.936;2023-04-29T12:02:33;14.10;99.90
2459;DHT22;1241;50.920;6.936;2023-04-29T12:05:04;14.20;99.90
2459;DHT22;1241;50.920;6.936;2023-04-29T12:07:30;14.30;99.90
2459;DHT22;1241;50.920;6.936;2023-04-29T12:09:56;14.40;99.90
2459;DHT22;1241;50.920;6.936;2023-04-29T12:12:22;14.50;99.90
2459;DHT22;1241;50.920;6.936;2023-04-29T12:14:49;14.60;99.90
2459;DHT22;1241;50.920;6.936;2023-04-29T12:17:15;14.60;99.90
2459;DHT22;1241;50.920;6.936;2023-04-29T12:19:42;14.80;99.90
2459;DHT22;1241;50.920;6.936;2023-04-29T12:22:08;14.90;99.90
2459;DHT22;1241;50.920;6.936;2023-04-29T12:24:38;14.90;99.90
2459;DHT22;1241;50.920;6.936;2023-04-29T12:27:07;15.10;99.90
2459;DHT22;1241;50.920;6.936;2023-04-29T12:29:38;15.00;99.90
2459;DHT22;1241;50.920;6.936;2023-04-29T12:32:11;14.80;99.90
2459;DHT22;1241;50.920;6.936;2023-04-29T12:34:38;14.70;99.90
2459;DHT22;1241;50.920;6.936;2023-04-29T12:37:04;14.70;99.90
2459;DHT22;1241;50.920;6.936;2023-04-29T12:39:30;14.50;99.90
2459;DHT22;1241;50.920;6.936;2023-04-29T12:41:59;14.40;99.90
2459;DHT22;1241;50.920;6.936;2023-04-29T12:44:36;14.60;99.90
2459;DHT22;1241;50.920;6.936;2023-04-29T12:47:07;14.80;99.90
2459;DHT22;1241;50.920;6.936;2023-04-29T12:49:35;15.20;99.90
2459;DHT22;1241;50.920;6.936;2023-04-29T12:52:00;15.40;99.90
2459;DHT22;1241;50.920;6.936;2023-04-29T12:54:27;15.30;99.90
2459;DHT22;1241;50.920;6.936;2023-04-29T12:56:52;15.50;99.90
2459;DHT22;1241;50.920;6.936;2023-04-29T12:59:18;15.50;99.90
2459;DHT22;1241;50.920;6.936;2023-04-29T13:01:44;15.00;99.90
2459;DHT22;1241;50.920;6.936;2023-04-29T13:04:10;14.70;99.90
2459;DHT22;1241;50.920;6.936;2023-04-29T13:06:36;14.90;99.90
2459;DHT22;1241;50.920;6.936;2023-04-29T13:09:05;15.10;99.90
2459;DHT22;1241;50.920;6.936;2023-04-29T13:11:31;15.10;99.90
2459;DHT22;1241;50.920;6.936;2023-04-29T13:13:57;15.50;99.90
2459;DHT22;1241;50.920;6.936;2023-04-29T13:16:22;15.90;99.90
2459;DHT22;1241;50.920;6.936;2023-04-29T13:18:49;16.50;99.90
2459;DHT22;1241;50.920;6.936;2023-04-29T13:21:15;17.00;99.90
2459;DHT22;1241;50.920;6.936;2023-04-29T13:23:41;17.40;99.90
2459;DHT22;1241;50.920;6.936;2023-04-29T13:26:06;17.40;99.90
2459;DHT22;1241;50.920;6.936;2023-04-29T13:28:33;17.60;99.90
2459;DHT22;1241;50.920;6.936;2023-04-29T13:30:59;17.70;99.90
2459;DHT22;1241;50.920;6.936;2023-04-29T13:33:25;17.80;99.90
2459;DHT22;1241;50.920;6.936;2023-04-29T13:35:51;17.90;99.90
2459;DHT22;1241;50.920;6.936;2023-04-29T13:38:16;17.50;99.90
2459;DHT22;1241;50.920;6.936;2023-04-29T13:40:43;17.60;99.90
2459;DHT22;1241;50.920;6.936;2023-04-29T13:43:08;17.80;99.90
2459;DHT22;1241;50.920;6.936;2023-04-29T13:45:34;17.70;99.90
2459;DHT22;1241;50.920;6.936;2023-04-29T13:48:00;17.80;99.90
2459;DHT22;1241;50.920;6.936;2023-04-29T13:50:26;17.80;99.90
2459;DHT22;1241;50.920;6.936;2023-04-29T13:52:51;17.90;99.90
2459;DHT22;1241;50.920;6.936;2023-04-29T13:55:17;18.00;99.90
2459;DHT22;1241;50.920;6.936;2023-04-29T13:57:43;18.30;99.90
2459;DHT22;1241;50.920;6.936;2023-04-29T14:00:09;18.60;99.90
2459;DHT22;1241;50.920;6.936;2023-04-29T14:02:37;18.70;99.90
2459;DHT22;1241;50.920;6.936;2023-04-29T14:05:03;18.70;99.90
2459;DHT22;1241;50.920;6.936;2023-04-29T14:07:29;18.60;99.90
2459;DHT22;1241;50.920;6.936;2023-04-29T14:09:54;18.60;99.90
2459;DHT22;1241;50.920;6.936;2023-04-29T14:12:20;18.50;99.90
2459;DHT22;1241;50.920;6.936;2023-04-29T14:14:46;18.20;99.90
2459;DHT22;1241;50.920;6.936;2023-04-29T14:17:11;18.30;99.90
2459;DHT22;1241;50.920;6.936;2023-04-29T14:19:37;18.30;99.90
2459;DHT22;1241;50.920;6.936;2023-04-29T14:22:02;18.20;99.90
2459;DHT22;1241;50.920;6.936;2023-04-29T14:24:28;18.10;99.90
2459;DHT22;1241;50.920;6.936;2023-04-29T14:26:54;17.90;99.90
2459;DHT22;1241;50.920;6.936;2023-04-29T14:29:20;17.80;99.90
2459;DHT22;1241;50.920;6.936;2023-04-29T14:31:46;17.80;99.90
2459;DHT22;1241;50.920;6.936;2023-04-29T14:34:11;17.80;99.90
2459;DHT22;1241;50.920;6.936;2023-04-29T14:36:37;17.90;99.90
2459;DHT22;1241;50.920;6.936;2023-04-29T14:39:03;17.90;99.90
2459;DHT22;1241;50.920;6.936;2023-04-29T14:41:29;17.80;99.90
2459;DHT22;1241;50.920;6.936;2023-04-29T14:43:55;17.50;99.90
2459;DHT22;1241;50.920;6.936;2023-04-29T14:46:20;17.30;99.90
2459;DHT22;1241;50.920;6.936;2023-04-29T14:48:49;17.20;99.90
2459;DHT22;1241;50.920;6.936;2023-04-29T14:51:15;17.10;99.90
2459;DHT22;1241;50.920;6.936;2023-04-29T14:53:41;17.00;99.90
2459;DHT22;1241;50.920;6.936;2023-04-29T14:56:07;16.90;99.90
2459;DHT22;1241;50.920;6.936;2023-04-29T14:58:33;16.50;99.90
2459;DHT22;1241;50.920;6.936;2023-04-29T15:00:58;16.50;99.90
2459;DHT22;1241;50.920;6.936;2023-04-29T15:03:24;16.50;99.90
2459;DHT22;1241;50.920;6.936;2023-04-29T15:05:50;16.60;99.90
2459;DHT22;1241;50.920;6.936;2023-04-29T15:08:16;16.80;99.90
2459;DHT22;1241;50.920;6.936;2023-04-29T15:10:43;17.00;99.90
2459;DHT22;1241;50.920;6.936;2023-04-29T15:13:11;17.20;99.90
2459;DHT22;1241;50.920;6.936;2023-04-29T15:15:37;17.20;99.90
2459;DHT22;1241;50.920;6.936;2023-04-29T15:18:03;17.30;99.90
2459;DHT22;1241;50.920;6.936;2023-04-29T15:20:30;17.20;99.90
2459;DHT22;1241;50.920;6.936;2023-04-29T15:22:57;17.20;99.90
2459;DHT22;1241;50.920;6.936;2023-04-29T15:25:22;17.20;99.90
2459;DHT22;1241;50.920;6.936;2023-04-29T15:27:48;17.30;99.90
2459;DHT22;1241;50.920;6.936;2023-04-29T15:30:14;17.00;99.90
2459;DHT22;1241;50.920;6.936;2023-04-29T15:32:41;16.80;99.90
2459;DHT22;1241;50.920;6.936;2023-04-29T15:35:07;16.90;99.90
2459;DHT22;1241;50.920;6.936;2023-04-29T15:37:32;17.00;99.90
2459;DHT22;1241;50.920;6.936;2023-04-29T15:39:59;17.00;99.90
2459;DHT22;1241;50.920;6.936;2023-04-29T15:42:25;17.00;99.90
2459;DHT22;1241;50.920;6.936;2023-04-29T15:44:51;17.00;99.90
2459;DHT22;1241;50.920;6.936;2023-04-29T15:47:17;17.00;99.90
2459;DHT22;1241;50.920;6.936;2023-04-29T15:49:43;17.10;99.90
2459;DHT22;1241;50.920;6.936;2023-04-29T15:52:09;17.30;99.90
2459;DHT22;1241;50.920;6.936;2023-04-29T15:54:34;17.30;99.90
2459;DHT22;1241;50.920;6.936;2023-04-29T15:57:00;17.30;99.90
2459;DHT22;1241;50.920;6.936;2023-04-29T15:59:30;17.30;99.90
2459;DHT22;1241;50.920;6.936;2023-04-29T16:01:56;17.30;99.90
2459;DHT22;1241;50.920;6.936;2023-04-29T16:04:22;17.30;99.90
2459;DHT22;1241;50.920;6.936;2023-04-29T16:06:48;17.20;99.90
2459;DHT22;1241;50.920;6.936;2023-04-29T16:09:14;17.10;99.90
2459;DHT22;1241;50.920;6.936;2023-04-29T16:11:40;17.10;99.90
2459;DHT22;1241;50.920;6.936;2023-04-29T16:14:06;17.20;99.90
2459;DHT22;1241;50.920;6.936;2023-04-29T16:16:31;17.10;99.90
2459;DHT22;1241;50.920;6.936;2023-04-29T16:18:57;17.10;99.90
2459;DHT22;1241;50.920;6.936;2023-04-29T16:21:23;17.20;99.90
2459;DHT22;1241;50.920;6.936;2023-04-29T16:23:50;17.00;99.90
2459;DHT22;1241;50.920;6.936;2023-04-29T16:26:16;17.00;99.90
2459;DHT22;1241;50.920;6.936;2023-04-29T16:28:41;16.90;99.90
2459;DHT22;1241;50.920;6.936;2023-04-29T16:31:08;16.90;99.90
2459;DHT22;1241;50.920;6.936;2023-04-29T16:33:34;16.80;99.90
2459;DHT22;1241;50.920;6.936;2023-04-29T16:35:59;16.70;99.90
2459;DHT22;1241;50.920;6.936;2023-04-29T16:38:25;16.60;99.90
2459;DHT22;1241;50.920;6.936;2023-04-29T16:40:51;16.60;99.90
2459;DHT22;1241;50.920;6.936;2023-04-29T16:43:17;16.50;99.90
2459;DHT22;1241;50.920;6.936;2023-04-29T16:45:43;16.40;99.90
2459;DHT22;1241;50.920;6.936;2023-04-29T16:48:09;16.30;99.90
2459;DHT22;1241;50.920;6.936;2023-04-29T16:50:35;16.40;99.90